createdAt,value
2022-11-21T00:00:28.062Z,100.00
2022-11-21T00:02:54.699Z,100.00
2022-11-21T00:05:21.307Z,100.00
2022-11-21T00:07:47.909Z,100.00
2022-11-21T00:10:14.560Z,100.00
2022-11-21T00:12:41.104Z,100.00
2022-11-21T00:15:07.876Z,100.00
2022-11-21T00:17:34.438Z,100.00
2022-11-21T00:20:00.979Z,100.00
2022-11-21T00:22:27.675Z,100.00
2022-11-21T00:24:54.505Z,100.00
2022-11-21T00:27:21.099Z,100.00
2022-11-21T00:29:47.590Z,100.00
2022-11-21T00:32:14.139Z,100.00
2022-11-21T00:34:40.701Z,100.00
2022-11-21T00:37:07.279Z,100.00
2022-11-21T00:39:33.862Z,100.00
2022-11-21T00:42:00.419Z,100.00
2022-11-21T00:44:27.177Z,100.00
2022-11-21T00:46:53.939Z,100.00
2022-11-21T00:49:20.459Z,100.00
2022-11-21T00:51:47.024Z,100.00
2022-11-21T00:54:13.588Z,100.00
2022-11-21T00:56:40.157Z,100.00
2022-11-21T00:59:06.707Z,100.00
2022-11-21T01:01:33.381Z,100.00
2022-11-21T01:03:59.945Z,100.00
2022-11-21T01:06:26.454Z,100.00
2022-11-21T01:08:53.058Z,100.00
2022-11-21T01:11:20.668Z,100.00
2022-11-21T01:13:48.117Z,100.00
2022-11-21T01:16:22.825Z,100.00
2022-11-21T01:18:49.463Z,100.00
2022-11-21T01:21:22.509Z,100.00
2022-11-21T01:23:49.458Z,100.00
2022-11-21T01:26:20.823Z,100.00
2022-11-21T01:28:47.460Z,100.00
2022-11-21T01:31:15.831Z,100.00
2022-11-21T01:33:42.860Z,100.00
2022-11-21T01:36:11.760Z,100.00
2022-11-21T01:38:39.242Z,100.00
2022-11-21T01:41:05.982Z,100.00
2022-11-21T01:43:32.674Z,100.00
2022-11-21T01:46:01.068Z,100.00
2022-11-21T01:48:36.465Z,100.00
2022-11-21T01:51:06.542Z,100.00
2022-11-21T01:53:33.538Z,100.00
2022-11-21T01:56:00.590Z,100.00
2022-11-21T01:58:28.864Z,100.00
2022-11-21T02:00:55.497Z,100.00
2022-11-21T02:03:24.658Z,100.00
2022-11-21T02:05:52.757Z,100.00
2022-11-21T02:08:20.494Z,100.00
2022-11-21T02:10:54.692Z,100.00
2022-11-21T02:13:22.852Z,100.00
2022-11-21T02:15:49.679Z,100.00
2022-11-21T02:18:16.183Z,100.00
2022-11-21T02:20:44.489Z,100.00
2022-11-21T02:23:23.624Z,100.00
2022-11-21T02:25:51.206Z,100.00
2022-11-21T02:28:20.457Z,100.00
2022-11-21T02:30:47.133Z,100.00
2022-11-21T02:33:13.674Z,100.00
2022-11-21T02:35:40.455Z,100.00
2022-11-21T02:38:13.180Z,100.00
2022-11-21T02:40:42.601Z,100.00
2022-11-21T02:43:09.066Z,100.00
2022-11-21T02:45:39.938Z,100.00
2022-11-21T02:48:06.961Z,100.00
2022-11-21T02:50:35.045Z,100.00
2022-11-21T02:53:02.009Z,100.00
2022-11-21T02:55:28.523Z,100.00
2022-11-21T02:57:57.107Z,100.00
2022-11-21T03:00:25.598Z,100.00
2022-11-21T03:02:53.466Z,100.00
2022-11-21T03:05:20.819Z,100.00
2022-11-21T03:07:47.878Z,100.00
2022-11-21T03:10:14.735Z,100.00
2022-11-21T03:12:42.177Z,100.00
2022-11-21T03:15:10.023Z,100.00
2022-11-21T03:17:36.482Z,100.00
2022-11-21T03:20:03.521Z,100.00
2022-11-21T03:22:30.024Z,100.00
2022-11-21T03:24:56.502Z,100.00
2022-11-21T03:27:23.131Z,100.00
2022-11-21T03:29:49.644Z,100.00
2022-11-21T03:32:16.216Z,100.00
2022-11-21T03:34:42.724Z,100.00
2022-11-21T03:37:09.259Z,100.00
2022-11-21T03:39:35.736Z,100.00
2022-11-21T03:42:02.249Z,100.00
2022-11-21T03:44:29.909Z,100.00
2022-11-21T03:46:56.615Z,100.00
2022-11-21T03:49:23.115Z,100.00
2022-11-21T03:51:49.719Z,100.00
2022-11-21T03:54:16.234Z,100.00
2022-11-21T03:56:42.763Z,100.00
2022-11-21T03:59:09.287Z,100.00
2022-11-21T04:01:37.106Z,100.00
2022-11-21T04:04:04.023Z,100.00
2022-11-21T04:06:31.528Z,100.00
2022-11-21T04:08:58.078Z,100.00
2022-11-21T04:11:24.862Z,100.00
2022-11-21T04:13:52.099Z,100.00
2022-11-21T04:16:18.642Z,100.00
2022-11-21T04:18:45.195Z,100.00
2022-11-21T04:21:11.829Z,100.00
2022-11-21T04:23:38.337Z,100.00
2022-11-21T04:26:04.850Z,100.00
2022-11-21T04:28:31.878Z,100.00
2022-11-21T04:31:09.812Z,100.00
2022-11-21T04:33:37.631Z,100.00
2022-11-21T04:36:04.182Z,100.00
2022-11-21T04:38:30.739Z,100.00
2022-11-21T04:40:57.225Z,100.00
2022-11-21T04:43:23.801Z,100.00
2022-11-21T04:45:50.321Z,100.00
2022-11-21T04:48:16.850Z,100.00
2022-11-21T04:50:43.379Z,100.00
2022-11-21T04:53:09.874Z,100.00
2022-11-21T04:55:36.373Z,100.00
2022-11-21T04:58:02.980Z,100.00
2022-11-21T05:00:29.627Z,100.00
2022-11-21T05:03:01.158Z,100.00
2022-11-21T05:05:27.678Z,100.00
2022-11-21T05:07:54.156Z,100.00
2022-11-21T05:10:20.685Z,100.00
2022-11-21T05:13:05.824Z,100.00
2022-11-21T05:15:32.313Z,100.00
2022-11-21T05:17:59.764Z,100.00
2022-11-21T05:20:26.301Z,100.00
2022-11-21T05:22:52.846Z,100.00
2022-11-21T05:25:19.377Z,100.00
2022-11-21T05:27:45.904Z,100.00
2022-11-21T05:30:13.663Z,100.00
2022-11-21T05:32:40.179Z,100.00
2022-11-21T05:35:08.159Z,100.00
2022-11-21T05:37:34.797Z,100.00
2022-11-21T05:40:01.316Z,100.00
2022-11-21T05:42:46.319Z,100.00
2022-11-21T05:45:12.842Z,100.00
2022-11-21T05:47:41.262Z,100.00
2022-11-21T05:50:07.977Z,100.00
2022-11-21T05:52:34.484Z,100.00
2022-11-21T05:55:00.977Z,100.00
2022-11-21T05:57:27.502Z,100.00
2022-11-21T05:59:54.068Z,100.00
2022-11-21T06:02:39.040Z,100.00
2022-11-21T06:05:05.798Z,100.00
2022-11-21T06:07:32.524Z,100.00
2022-11-21T06:09:59.109Z,100.00
2022-11-21T06:12:25.946Z,100.00
2022-11-21T06:14:52.530Z,100.00
2022-11-21T06:17:19.056Z,100.00
2022-11-21T06:19:45.847Z,100.00
2022-11-21T06:22:12.417Z,100.00
2022-11-21T06:24:38.895Z,100.00
2022-11-21T06:27:05.367Z,100.00
2022-11-21T06:29:31.874Z,100.00
2022-11-21T06:31:58.431Z,100.00
2022-11-21T06:34:26.319Z,100.00
2022-11-21T06:36:53.061Z,100.00
2022-11-21T06:39:19.582Z,100.00
2022-11-21T06:41:51.194Z,100.00
2022-11-21T06:44:20.841Z,100.00
2022-11-21T06:46:51.229Z,100.00
2022-11-21T06:49:18.426Z,100.00
2022-11-21T06:51:44.931Z,100.00
2022-11-21T06:54:16.329Z,100.00
2022-11-21T06:56:43.749Z,100.00
2022-11-21T06:59:10.254Z,100.00
2022-11-21T07:01:37.019Z,100.00
2022-11-21T07:04:03.637Z,100.00
2022-11-21T07:06:30.151Z,100.00
2022-11-21T07:11:43.545Z,100.00
2022-11-21T07:14:10.145Z,100.00
2022-11-21T07:16:37.060Z,100.00
2022-11-21T07:19:03.641Z,100.00
2022-11-21T07:21:30.183Z,100.00
2022-11-21T07:23:56.682Z,100.00
2022-11-21T07:26:23.229Z,100.00
2022-11-21T07:28:49.755Z,100.00
2022-11-21T07:31:16.580Z,100.00
2022-11-21T07:33:47.586Z,100.00
2022-11-21T07:36:14.128Z,100.00
2022-11-21T07:38:41.775Z,100.00
2022-11-21T07:41:08.896Z,100.00
2022-11-21T07:43:35.421Z,100.00
2022-11-21T07:46:01.937Z,100.00
2022-11-21T07:48:28.437Z,100.00
2022-11-21T07:50:54.924Z,100.00
2022-11-21T07:53:21.479Z,100.00
2022-11-21T07:55:47.990Z,100.00
2022-11-21T07:58:15.682Z,100.00
2022-11-21T08:00:45.147Z,100.00
2022-11-21T08:03:12.809Z,100.00
2022-11-21T08:05:43.145Z,100.00
2022-11-21T08:08:13.070Z,100.00
2022-11-21T08:10:40.514Z,100.00
2022-11-21T08:13:06.990Z,100.00
2022-11-21T08:15:33.801Z,100.00
2022-11-21T08:18:06.993Z,100.00
2022-11-21T08:20:33.569Z,100.00
2022-11-21T08:23:00.115Z,100.00
2022-11-21T08:25:26.607Z,100.00
2022-11-21T08:27:56.117Z,100.00
2022-11-21T08:30:22.688Z,100.00
2022-11-21T08:32:49.188Z,100.00
2022-11-21T08:35:15.755Z,100.00
2022-11-21T08:37:42.288Z,100.00
2022-11-21T08:40:09.061Z,100.00
2022-11-21T08:42:35.555Z,100.00
2022-11-21T08:45:02.069Z,100.00
2022-11-21T08:47:28.619Z,100.00
2022-11-21T08:49:55.113Z,100.00
2022-11-21T08:52:21.629Z,100.00
2022-11-21T08:54:48.114Z,100.00
2022-11-21T08:57:14.970Z,100.00
2022-11-21T08:59:41.508Z,100.00
2022-11-21T09:02:10.053Z,100.00
2022-11-21T09:04:36.612Z,100.00
2022-11-21T09:07:04.299Z,100.00
2022-11-21T09:09:30.860Z,100.00
2022-11-21T09:11:57.397Z,100.00
2022-11-21T09:14:42.437Z,100.00
2022-11-21T09:17:31.107Z,100.00
2022-11-21T09:19:57.704Z,100.00
2022-11-21T09:22:25.005Z,100.00
2022-11-21T09:24:51.557Z,100.00
2022-11-21T09:27:18.063Z,100.00
2022-11-21T09:29:49.539Z,100.00
2022-11-21T09:32:18.989Z,100.00
2022-11-21T09:34:45.462Z,100.00
2022-11-21T09:37:12.023Z,100.00
2022-11-21T09:39:38.493Z,100.00
2022-11-21T09:42:23.421Z,100.00
2022-11-21T09:45:22.175Z,100.00
2022-11-21T09:47:51.160Z,100.00
2022-11-21T09:50:31.209Z,100.00
2022-11-21T09:53:07.324Z,100.00
2022-11-21T09:55:39.673Z,100.00
2022-11-21T09:58:11.317Z,100.00
2022-11-21T10:00:37.866Z,100.00
2022-11-21T10:03:04.581Z,100.00
2022-11-21T10:05:41.369Z,100.00
2022-11-21T10:08:16.230Z,100.00
2022-11-21T10:10:51.981Z,100.00
2022-11-21T10:13:36.794Z,100.00
2022-11-21T10:16:14.237Z,100.00
2022-11-21T10:18:40.773Z,100.00
2022-11-21T10:21:34.143Z,100.00
2022-11-21T10:24:10.395Z,100.00
2022-11-21T10:26:37.246Z,100.00
2022-11-21T10:29:07.101Z,100.00
2022-11-21T10:31:40.322Z,100.00
2022-11-21T10:34:15.608Z,100.00
2022-11-21T10:36:44.812Z,100.00
2022-11-21T10:39:18.985Z,100.00
2022-11-21T10:42:03.866Z,100.00
2022-11-21T10:44:49.082Z,100.00
2022-11-21T10:47:29.035Z,100.00
2022-11-21T10:50:15.843Z,100.00
2022-11-21T10:52:49.411Z,100.00
2022-11-21T10:55:16.765Z,100.00
2022-11-21T10:57:45.458Z,100.00
2022-11-21T11:00:18.271Z,100.00
2022-11-21T11:02:57.440Z,100.00
2022-11-21T11:05:28.415Z,100.00
2022-11-21T11:08:11.347Z,100.00
2022-11-21T11:10:40.980Z,100.00
2022-11-21T11:16:17.769Z,97.81
2022-11-21T11:18:51.010Z,96.26
2022-11-21T11:21:19.558Z,95.03
2022-11-21T11:23:47.033Z,91.63
2022-11-21T11:26:19.695Z,90.32
2022-11-21T11:28:46.183Z,94.06
2022-11-21T11:31:12.683Z,94.32
2022-11-21T11:33:50.236Z,96.48
2022-11-21T11:36:16.716Z,94.58
2022-11-21T11:38:47.203Z,92.43
2022-11-21T11:41:58.464Z,87.97
2022-11-21T11:45:03.191Z,87.03
2022-11-21T11:47:33.274Z,91.59
2022-11-21T11:50:12.232Z,87.67
2022-11-21T11:52:57.248Z,86.59
2022-11-21T11:55:32.877Z,87.93
2022-11-21T11:58:01.153Z,87.38
2022-11-21T12:00:48.298Z,96.42
2022-11-21T12:03:21.502Z,98.99
2022-11-21T12:06:03.564Z,100.00
2022-11-21T12:08:41.722Z,100.00
2022-11-21T12:11:43.810Z,100.00
2022-11-21T12:14:55.136Z,99.32
2022-11-21T12:17:26.997Z,100.00
2022-11-21T12:19:54.692Z,100.00
2022-11-21T12:22:21.187Z,100.00
2022-11-21T12:24:48.699Z,100.00
2022-11-21T12:27:27.262Z,100.00
2022-11-21T12:30:04.920Z,100.00
2022-11-21T12:32:31.537Z,100.00
2022-11-21T12:35:16.564Z,100.00
2022-11-21T12:37:48.615Z,100.00
2022-11-21T12:40:20.970Z,100.00
2022-11-21T12:42:50.397Z,100.00
2022-11-21T12:45:29.083Z,100.00
2022-11-21T12:48:32.958Z,100.00
2022-11-21T12:51:36.779Z,100.00
2022-11-21T12:54:32.020Z,100.00
2022-11-21T12:57:07.584Z,100.00
2022-11-21T12:59:39.424Z,100.00
2022-11-21T13:02:19.223Z,100.00
2022-11-21T13:04:48.274Z,100.00
2022-11-21T13:07:15.125Z,100.00
2022-11-21T13:09:43.564Z,100.00
2022-11-21T13:12:16.265Z,100.00
2022-11-21T13:14:48.889Z,100.00
2022-11-21T13:17:21.711Z,100.00
2022-11-21T13:19:48.199Z,100.00
2022-11-21T13:22:33.609Z,100.00
2022-11-21T13:25:00.935Z,100.00
2022-11-21T13:27:27.398Z,100.00
2022-11-21T13:30:09.643Z,100.00
2022-11-21T13:32:39.697Z,100.00
2022-11-21T13:35:26.515Z,100.00
2022-11-21T13:37:54.798Z,100.00
2022-11-21T13:40:27.560Z,100.00
2022-11-21T13:46:00.995Z,100.00
2022-11-21T13:48:40.266Z,100.00
2022-11-21T13:51:09.566Z,100.00
2022-11-21T13:53:42.234Z,100.00
2022-11-21T13:56:08.983Z,100.00
2022-11-21T13:58:54.189Z,100.00
2022-11-21T14:01:48.553Z,100.00
2022-11-21T14:04:24.253Z,100.00
2022-11-21T14:06:50.797Z,100.00
2022-11-21T14:09:22.670Z,100.00
2022-11-21T14:12:00.888Z,100.00
2022-11-21T14:14:30.541Z,100.00
2022-11-21T14:17:23.314Z,100.00
2022-11-21T14:19:51.442Z,100.00
2022-11-21T14:22:30.457Z,100.00
2022-11-21T14:25:00.142Z,100.00
2022-11-21T14:27:29.387Z,100.00
2022-11-21T14:29:56.009Z,100.00
2022-11-21T14:32:26.146Z,100.00
2022-11-21T14:34:52.658Z,100.00
2022-11-21T14:37:19.193Z,100.00
2022-11-21T14:39:52.772Z,100.00
2022-11-21T14:42:23.079Z,100.00
2022-11-21T14:45:05.505Z,100.00
2022-11-21T14:47:31.961Z,100.00
2022-11-21T14:50:07.131Z,100.00
2022-11-21T14:52:34.242Z,100.00
2022-11-21T14:57:48.412Z,100.00
2022-11-21T15:00:43.094Z,100.00
2022-11-21T15:03:03.380Z,100.00
2022-11-21T15:06:01.329Z,100.00
2022-11-21T15:11:10.917Z,100.00
2022-11-21T15:13:58.428Z,100.00
2022-11-21T15:16:24.302Z,100.00
2022-11-21T15:18:50.813Z,100.00
2022-11-21T15:21:17.356Z,100.00
2022-11-21T15:23:44.579Z,100.00
2022-11-21T15:26:31.126Z,100.00
2022-11-21T15:28:58.836Z,100.00
2022-11-21T15:31:25.801Z,100.00
2022-11-21T15:36:45.551Z,100.00
2022-11-21T15:39:15.672Z,100.00
2022-11-21T15:41:42.205Z,100.00
2022-11-21T15:44:08.686Z,100.00
2022-11-21T15:46:42.207Z,100.00
2022-11-21T15:52:08.872Z,100.00
2022-11-21T15:54:35.991Z,100.00
2022-11-21T15:57:02.503Z,100.00
2022-11-21T15:59:29.252Z,100.00
2022-11-21T16:01:55.855Z,100.00
2022-11-21T16:04:25.482Z,100.00
2022-11-21T16:06:52.687Z,100.00
2022-11-21T16:09:19.168Z,100.00
2022-11-21T16:11:47.062Z,100.00
2022-11-21T16:14:14.706Z,100.00
2022-11-21T16:16:43.416Z,100.00
2022-11-21T16:19:10.958Z,100.00
2022-11-21T16:21:37.493Z,100.00
2022-11-21T16:24:04.154Z,100.00
2022-11-21T16:26:30.715Z,100.00
2022-11-21T16:28:58.126Z,100.00
2022-11-21T16:31:26.080Z,100.00
2022-11-21T16:33:52.829Z,100.00
2022-11-21T16:36:23.358Z,100.00
2022-11-21T16:38:50.430Z,100.00
2022-11-21T16:41:18.562Z,100.00
2022-11-21T16:43:49.843Z,100.00
2022-11-21T16:46:16.990Z,100.00
2022-11-21T16:48:43.560Z,100.00
2022-11-21T16:51:10.595Z,100.00
2022-11-21T16:53:37.124Z,100.00
2022-11-21T16:56:03.783Z,100.00
2022-11-21T16:58:30.338Z,100.00
2022-11-21T17:00:56.871Z,100.00
2022-11-21T17:03:23.360Z,100.00
2022-11-21T17:05:59.115Z,100.00
2022-11-21T17:08:26.097Z,100.00
2022-11-21T17:10:52.601Z,100.00
2022-11-21T17:13:19.110Z,100.00
2022-11-21T17:15:46.931Z,100.00
2022-11-21T17:18:13.573Z,100.00
2022-11-21T17:20:40.169Z,100.00
2022-11-21T17:23:06.685Z,100.00
2022-11-21T17:25:33.168Z,100.00
2022-11-21T17:27:59.704Z,100.00
2022-11-21T17:30:26.238Z,100.00
2022-11-21T17:32:52.781Z,100.00
2022-11-21T17:35:19.283Z,100.00
2022-11-21T17:37:47.035Z,100.00
2022-11-21T17:40:13.978Z,100.00
2022-11-21T17:42:43.377Z,100.00
2022-11-21T17:45:10.056Z,100.00
2022-11-21T17:47:36.552Z,100.00
2022-11-21T17:50:06.254Z,100.00
2022-11-21T17:52:33.096Z,100.00
2022-11-21T17:54:59.655Z,100.00
2022-11-21T17:57:26.359Z,100.00
2022-11-21T17:59:52.996Z,100.00
2022-11-21T18:02:21.757Z,100.00
2022-11-21T18:04:48.923Z,100.00
2022-11-21T18:07:15.695Z,100.00
2022-11-21T18:09:42.301Z,100.00
2022-11-21T18:12:08.802Z,100.00
2022-11-21T18:14:35.297Z,100.00
2022-11-21T18:17:01.879Z,100.00
2022-11-21T18:19:28.360Z,100.00
2022-11-21T18:21:54.869Z,100.00
2022-11-21T18:24:21.441Z,100.00
2022-11-21T18:26:48.183Z,100.00
2022-11-21T18:32:01.338Z,100.00
2022-11-21T18:34:27.838Z,100.00
2022-11-21T18:36:54.559Z,100.00
2022-11-21T18:39:23.112Z,100.00
2022-11-21T18:41:50.472Z,100.00
2022-11-21T18:44:21.668Z,100.00
2022-11-21T18:46:48.871Z,100.00
2022-11-21T18:49:15.417Z,100.00
2022-11-21T18:51:41.939Z,100.00
2022-11-21T18:54:09.744Z,100.00
2022-11-21T18:56:37.145Z,100.00
2022-11-21T18:59:05.861Z,100.00
2022-11-21T19:01:33.358Z,100.00
2022-11-21T19:04:00.115Z,100.00
2022-11-21T19:06:27.594Z,100.00
2022-11-21T19:08:55.730Z,100.00
2022-11-21T19:11:24.607Z,100.00
2022-11-21T19:13:51.714Z,100.00
2022-11-21T19:16:19.845Z,100.00
2022-11-21T19:19:05.298Z,100.00
2022-11-21T19:21:35.890Z,100.00
2022-11-21T19:24:02.648Z,100.00
2022-11-21T19:26:31.058Z,100.00
2022-11-21T19:28:57.717Z,100.00
2022-11-21T19:31:24.524Z,100.00
2022-11-21T19:33:51.333Z,100.00
2022-11-21T19:36:21.918Z,100.00
2022-11-21T19:38:51.156Z,100.00
2022-11-21T19:41:26.234Z,100.00
2022-11-21T19:43:57.508Z,100.00
2022-11-21T19:46:25.310Z,100.00
2022-11-21T19:48:52.860Z,100.00
2022-11-21T19:51:20.751Z,100.00
2022-11-21T19:53:47.834Z,100.00
2022-11-21T19:56:19.042Z,100.00
2022-11-21T19:58:46.307Z,100.00
2022-11-21T20:01:17.115Z,100.00
2022-11-21T20:03:44.840Z,100.00
2022-11-21T20:06:21.983Z,100.00
2022-11-21T20:08:49.428Z,100.00
2022-11-21T20:11:16.855Z,100.00
2022-11-21T20:13:44.944Z,100.00
2022-11-21T20:16:19.842Z,100.00
2022-11-21T20:18:46.731Z,100.00
2022-11-21T20:21:13.775Z,100.00
2022-11-21T20:23:40.501Z,100.00
2022-11-21T20:26:08.190Z,100.00
2022-11-21T20:28:36.026Z,100.00
2022-11-21T20:31:11.476Z,100.00
2022-11-21T20:33:38.936Z,100.00
2022-11-21T20:36:09.430Z,100.00
2022-11-21T20:38:36.224Z,100.00
2022-11-21T20:41:03.290Z,100.00
2022-11-21T20:44:02.721Z,100.00
2022-11-21T20:46:20.416Z,100.00
2022-11-21T20:48:47.704Z,100.00
2022-11-21T20:52:49.852Z,100.00
2022-11-21T20:54:03.753Z,100.00
2022-11-21T20:56:34.706Z,100.00
2022-11-21T20:59:01.755Z,100.00
2022-11-21T21:01:28.632Z,100.00
2022-11-21T21:03:55.707Z,100.00
2022-11-21T21:06:24.264Z,100.00
2022-11-21T21:08:51.619Z,100.00
2022-11-21T21:11:44.620Z,100.00
2022-11-21T21:14:06.382Z,100.00
2022-11-21T21:16:36.364Z,100.00
2022-11-21T21:19:02.938Z,100.00
2022-11-21T21:21:30.889Z,100.00
2022-11-21T21:24:01.330Z,100.00
2022-11-21T21:26:29.302Z,100.00
2022-11-21T21:28:56.598Z,100.00
2022-11-21T21:31:23.641Z,100.00
2022-11-21T21:33:50.521Z,100.00
2022-11-21T21:36:21.729Z,100.00
2022-11-21T21:38:51.988Z,100.00
2022-11-21T21:41:18.636Z,100.00
2022-11-21T21:43:45.154Z,100.00
2022-11-21T21:46:15.778Z,100.00
2022-11-21T21:48:43.125Z,100.00
2022-11-21T21:51:13.933Z,100.00
2022-11-21T21:53:40.487Z,100.00
2022-11-21T21:56:07.491Z,100.00
2022-11-21T21:58:35.621Z,100.00
2022-11-21T22:01:03.402Z,100.00
2022-11-21T22:03:30.118Z,100.00
2022-11-21T22:06:00.112Z,100.00
2022-11-21T22:08:26.583Z,100.00
2022-11-21T22:10:53.139Z,100.00
2022-11-21T22:13:19.629Z,100.00
2022-11-21T22:15:46.216Z,100.00
2022-11-21T22:18:12.705Z,100.00
2022-11-21T22:20:39.280Z,100.00
2022-11-21T22:23:05.756Z,100.00
2022-11-21T22:25:32.215Z,100.00
2022-11-21T22:27:58.736Z,100.00
2022-11-21T22:30:25.242Z,100.00
2022-11-21T22:32:52.308Z,100.00
2022-11-21T22:35:18.821Z,100.00
2022-11-21T22:37:45.316Z,100.00
2022-11-21T22:40:12.357Z,100.00
2022-11-21T22:42:38.843Z,100.00
2022-11-21T22:45:05.669Z,100.00
2022-11-21T22:47:32.126Z,100.00
2022-11-21T22:49:58.633Z,100.00
2022-11-21T22:52:25.206Z,100.00
2022-11-21T22:54:51.942Z,100.00
2022-11-21T22:57:19.239Z,100.00
2022-11-21T22:59:45.783Z,100.00
2022-11-21T23:02:12.370Z,100.00
2022-11-21T23:04:38.888Z,100.00
2022-11-21T23:07:05.468Z,100.00
2022-11-21T23:09:32.234Z,100.00
2022-11-21T23:11:59.098Z,100.00
2022-11-21T23:14:25.612Z,100.00
2022-11-21T23:16:52.148Z,100.00
2022-11-21T23:19:18.690Z,100.00
2022-11-21T23:21:45.224Z,100.00
2022-11-21T23:24:12.966Z,100.00
2022-11-21T23:26:39.476Z,100.00
2022-11-21T23:29:08.868Z,100.00
2022-11-21T23:31:35.903Z,100.00
2022-11-21T23:34:02.643Z,100.00
2022-11-21T23:36:29.144Z,100.00
2022-11-21T23:38:55.661Z,100.00
2022-11-21T23:41:22.139Z,100.00
2022-11-21T23:43:48.626Z,100.00
2022-11-21T23:46:15.141Z,100.00
2022-11-21T23:48:41.657Z,100.00
2022-11-21T23:51:08.158Z,100.00
2022-11-21T23:53:34.729Z,100.00
2022-11-21T23:56:01.376Z,100.00
2022-11-21T23:58:27.865Z,100.00
